sensor_id;sensor_type;location;lat;lon;timestamp;temperature;humidity
23731;DHT22;12046;44.702;10.622;2023-11-19T00:00:16;9.70;67.60
23731;DHT22;12046;44.702;10.622;2023-11-19T00:02:45;9.60;67.70
23731;DHT22;12046;44.702;10.622;2023-11-19T00:05:12;9.70;67.90
23731;DHT22;12046;44.702;10.622;2023-11-19T00:07:39;9.70;68.00
23731;DHT22;12046;44.702;10.622;2023-11-19T00:10:13;9.60;68.00
23731;DHT22;12046;44.702;10.622;2023-11-19T00:12:43;9.60;67.80
23731;DHT22;12046;44.702;10.622;2023-11-19T00:15:13;9.60;67.70
23731;DHT22;12046;44.702;10.622;2023-11-19T00:17:40;9.60;67.70
23731;DHT22;12046;44.702;10.622;2023-11-19T00:20:06;9.50;67.90
23731;DHT22;12046;44.702;10.622;2023-11-19T00:22:33;9.50;68.20
23731;DHT22;12046;44.702;10.622;2023-11-19T00:24:59;9.50;68.80
23731;DHT22;12046;44.702;10.622;2023-11-19T00:27:26;9.50;68.80
23731;DHT22;12046;44.702;10.622;2023-11-19T00:29:51;9.50;69.30
23731;DHT22;12046;44.702;10.622;2023-11-19T00:32:20;9.50;69.20
23731;DHT22;12046;44.702;10.622;2023-11-19T00:34:46;9.50;69.50
23731;DHT22;12046;44.702;10.622;2023-11-19T00:37:14;9.50;69.40
23731;DHT22;12046;44.702;10.622;2023-11-19T00:39:41;9.50;69.70
23731;DHT22;12046;44.702;10.622;2023-11-19T00:42:07;9.50;69.90
23731;DHT22;12046;44.702;10.622;2023-11-19T00:44:33;9.40;70.20
23731;DHT22;12046;44.702;10.622;2023-11-19T00:46:59;9.40;70.60
23731;DHT22;12046;44.702;10.622;2023-11-19T00:49:31;9.40;70.90
23731;DHT22;12046;44.702;10.622;2023-11-19T00:51:58;9.30;71.10
23731;DHT22;12046;44.702;10.622;2023-11-19T00:54:24;9.30;71.20
23731;DHT22;12046;44.702;10.622;2023-11-19T00:56:55;9.30;71.50
23731;DHT22;12046;44.702;10.622;2023-11-19T00:59:21;9.30;71.60
23731;DHT22;12046;44.702;10.622;2023-11-19T01:01:47;9.20;71.70
23731;DHT22;12046;44.702;10.622;2023-11-19T01:04:17;9.20;71.80
23731;DHT22;12046;44.702;10.622;2023-11-19T01:06:44;9.10;72.00
23731;DHT22;12046;44.702;10.622;2023-11-19T01:09:12;9.20;72.30
23731;DHT22;12046;44.702;10.622;2023-11-19T01:11:38;9.10;72.50
23731;DHT22;12046;44.702;10.622;2023-11-19T01:14:04;9.10;72.60
23731;DHT22;12046;44.702;10.622;2023-11-19T01:16:30;9.00;72.50
23731;DHT22;12046;44.702;10.622;2023-11-19T01:18:56;9.00;72.50
23731;DHT22;12046;44.702;10.622;2023-11-19T01:21:22;8.90;72.70
23731;DHT22;12046;44.702;10.622;2023-11-19T01:23:48;8.90;72.90
23731;DHT22;12046;44.702;10.622;2023-11-19T01:26:14;8.90;72.90
23731;DHT22;12046;44.702;10.622;2023-11-19T01:28:40;8.90;72.90
23731;DHT22;12046;44.702;10.622;2023-11-19T01:31:15;8.90;72.80
23731;DHT22;12046;44.702;10.622;2023-11-19T01:33:43;8.90;72.90
23731;DHT22;12046;44.702;10.622;2023-11-19T01:36:15;8.90;73.00
23731;DHT22;12046;44.702;10.622;2023-11-19T01:38:41;8.90;73.00
23731;DHT22;12046;44.702;10.622;2023-11-19T01:41:07;8.90;73.10
23731;DHT22;12046;44.702;10.622;2023-11-19T01:43:38;8.90;73.20
23731;DHT22;12046;44.702;10.622;2023-11-19T01:46:06;8.90;73.10
23731;DHT22;12046;44.702;10.622;2023-11-19T01:48:35;8.90;73.30
23731;DHT22;12046;44.702;10.622;2023-11-19T01:51:03;8.90;73.40
23731;DHT22;12046;44.702;10.622;2023-11-19T01:53:32;8.90;73.40
23731;DHT22;12046;44.702;10.622;2023-11-19T01:56:00;8.80;73.40
23731;DHT22;12046;44.702;10.622;2023-11-19T01:58:27;8.80;73.50
23731;DHT22;12046;44.702;10.622;2023-11-19T02:00:57;8.80;73.70
23731;DHT22;12046;44.702;10.622;2023-11-19T02:03:24;8.70;74.10
23731;DHT22;12046;44.702;10.622;2023-11-19T02:05:52;8.70;74.20
23731;DHT22;12046;44.702;10.622;2023-11-19T02:08:18;8.60;74.50
23731;DHT22;12046;44.702;10.622;2023-11-19T02:10:45;8.60;74.40
23731;DHT22;12046;44.702;10.622;2023-11-19T02:13:11;8.60;74.70
23731;DHT22;12046;44.702;10.622;2023-11-19T02:15:40;8.40;74.70
23731;DHT22;12046;44.702;10.622;2023-11-19T02:18:23;8.40;75.00
23731;DHT22;12046;44.702;10.622;2023-11-19T02:20:56;8.40;75.20
23731;DHT22;12046;44.702;10.622;2023-11-19T02:23:26;8.40;75.40
23731;DHT22;12046;44.702;10.622;2023-11-19T02:28:43;8.30;75.50
23731;DHT22;12046;44.702;10.622;2023-11-19T02:31:10;8.30;75.80
23731;DHT22;12046;44.702;10.622;2023-11-19T02:33:40;8.30;76.10
23731;DHT22;12046;44.702;10.622;2023-11-19T02:36:06;8.20;76.30
23731;DHT22;12046;44.702;10.622;2023-11-19T02:38:36;8.20;76.50
23731;DHT22;12046;44.702;10.622;2023-11-19T02:41:06;8.20;76.90
23731;DHT22;12046;44.702;10.622;2023-11-19T02:43:33;8.10;77.20
23731;DHT22;12046;44.702;10.622;2023-11-19T02:46:03;8.10;77.80
23731;DHT22;12046;44.702;10.622;2023-11-19T02:48:38;8.00;77.30
23731;DHT22;12046;44.702;10.622;2023-11-19T02:51:05;8.00;77.50
23731;DHT22;12046;44.702;10.622;2023-11-19T02:53:34;8.00;77.60
23731;DHT22;12046;44.702;10.622;2023-11-19T02:56:03;8.00;77.60
23731;DHT22;12046;44.702;10.622;2023-11-19T02:58:37;7.90;77.70
23731;DHT22;12046;44.702;10.622;2023-11-19T03:01:04;8.00;78.00
23731;DHT22;12046;44.702;10.622;2023-11-19T03:03:38;8.00;77.90
23731;DHT22;12046;44.702;10.622;2023-11-19T03:06:06;8.00;78.00
23731;DHT22;12046;44.702;10.622;2023-11-19T03:08:34;8.00;78.00
23731;DHT22;12046;44.702;10.622;2023-11-19T03:11:01;8.00;78.00
23731;DHT22;12046;44.702;10.622;2023-11-19T03:13:26;8.00;78.10
23731;DHT22;12046;44.702;10.622;2023-11-19T03:15:52;8.00;77.90
23731;DHT22;12046;44.702;10.622;2023-11-19T03:18:20;7.90;77.80
23731;DHT22;12046;44.702;10.622;2023-11-19T03:20:52;8.00;77.80
23731;DHT22;12046;44.702;10.622;2023-11-19T03:23:18;7.90;78.10
23731;DHT22;12046;44.702;10.622;2023-11-19T03:25:44;7.90;78.10
23731;DHT22;12046;44.702;10.622;2023-11-19T03:28:10;7.80;78.40
23731;DHT22;12046;44.702;10.622;2023-11-19T03:30:38;7.80;78.60
23731;DHT22;12046;44.702;10.622;2023-11-19T03:33:04;7.60;78.70
23731;DHT22;12046;44.702;10.622;2023-11-19T03:35:33;7.70;78.70
23731;DHT22;12046;44.702;10.622;2023-11-19T03:37:59;7.70;78.90
23731;DHT22;12046;44.702;10.622;2023-11-19T03:40:25;7.70;78.80
23731;DHT22;12046;44.702;10.622;2023-11-19T03:42:58;7.70;79.20
23731;DHT22;12046;44.702;10.622;2023-11-19T03:45:25;7.70;79.00
23731;DHT22;12046;44.702;10.622;2023-11-19T03:47:51;7.70;79.10
23731;DHT22;12046;44.702;10.622;2023-11-19T03:50:17;7.70;79.10
23731;DHT22;12046;44.702;10.622;2023-11-19T03:52:46;7.80;79.20
23731;DHT22;12046;44.702;10.622;2023-11-19T03:55:12;7.80;79.20
23731;DHT22;12046;44.702;10.622;2023-11-19T03:57:40;7.80;79.20
23731;DHT22;12046;44.702;10.622;2023-11-19T04:00:06;7.80;78.90
23731;DHT22;12046;44.702;10.622;2023-11-19T04:02:40;7.80;78.80
23731;DHT22;12046;44.702;10.622;2023-11-19T04:05:06;7.80;78.60
23731;DHT22;12046;44.702;10.622;2023-11-19T04:07:32;7.70;78.50
23731;DHT22;12046;44.702;10.622;2023-11-19T04:09:58;7.80;78.70
23731;DHT22;12046;44.702;10.622;2023-11-19T04:12:25;7.70;78.80
23731;DHT22;12046;44.702;10.622;2023-11-19T04:14:51;7.90;79.20
23731;DHT22;12046;44.702;10.622;2023-11-19T04:17:17;7.90;79.10
23731;DHT22;12046;44.702;10.622;2023-11-19T04:19:43;7.80;79.00
23731;DHT22;12046;44.702;10.622;2023-11-19T04:22:09;7.80;79.00
23731;DHT22;12046;44.702;10.622;2023-11-19T04:24:35;7.80;78.80
23731;DHT22;12046;44.702;10.622;2023-11-19T04:27:01;7.70;78.60
23731;DHT22;12046;44.702;10.622;2023-11-19T04:29:27;7.70;78.80
23731;DHT22;12046;44.702;10.622;2023-11-19T04:31:53;7.60;78.70
23731;DHT22;12046;44.702;10.622;2023-11-19T04:34:19;7.60;78.60
23731;DHT22;12046;44.702;10.622;2023-11-19T04:36:45;7.60;78.50
23731;DHT22;12046;44.702;10.622;2023-11-19T04:39:11;7.50;78.60
23731;DHT22;12046;44.702;10.622;2023-11-19T04:41:51;7.50;78.60
23731;DHT22;12046;44.702;10.622;2023-11-19T04:44:20;7.50;78.50
23731;DHT22;12046;44.702;10.622;2023-11-19T04:46:46;7.60;78.50
23731;DHT22;12046;44.702;10.622;2023-11-19T04:49:13;7.60;78.50
23731;DHT22;12046;44.702;10.622;2023-11-19T04:51:40;7.60;78.40
23731;DHT22;12046;44.702;10.622;2023-11-19T04:54:07;7.60;78.20
23731;DHT22;12046;44.702;10.622;2023-11-19T04:56:34;7.60;78.10
23731;DHT22;12046;44.702;10.622;2023-11-19T04:59:01;7.60;78.10
23731;DHT22;12046;44.702;10.622;2023-11-19T05:01:28;7.60;78.10
23731;DHT22;12046;44.702;10.622;2023-11-19T05:03:54;7.60;78.10
23731;DHT22;12046;44.702;10.622;2023-11-19T05:06:19;7.60;78.30
23731;DHT22;12046;44.702;10.622;2023-11-19T05:08:45;7.50;78.20
23731;DHT22;12046;44.702;10.622;2023-11-19T05:11:11;7.50;78.30
23731;DHT22;12046;44.702;10.622;2023-11-19T05:13:44;7.40;78.30
23731;DHT22;12046;44.702;10.622;2023-11-19T05:16:11;7.40;78.40
23731;DHT22;12046;44.702;10.622;2023-11-19T05:18:43;7.40;78.50
23731;DHT22;12046;44.702;10.622;2023-11-19T05:21:09;7.30;78.60
23731;DHT22;12046;44.702;10.622;2023-11-19T05:23:35;7.30;78.80
23731;DHT22;12046;44.702;10.622;2023-11-19T05:26:01;7.40;79.00
23731;DHT22;12046;44.702;10.622;2023-11-19T05:28:27;7.30;78.90
23731;DHT22;12046;44.702;10.622;2023-11-19T05:30:54;7.30;79.20
23731;DHT22;12046;44.702;10.622;2023-11-19T05:33:19;7.40;79.20
23731;DHT22;12046;44.702;10.622;2023-11-19T05:35:45;7.30;79.40
23731;DHT22;12046;44.702;10.622;2023-11-19T05:38:11;7.40;79.50
23731;DHT22;12046;44.702;10.622;2023-11-19T05:40:37;7.40;79.60
23731;DHT22;12046;44.702;10.622;2023-11-19T05:43:04;7.30;79.50
23731;DHT22;12046;44.702;10.622;2023-11-19T05:45:31;7.40;79.60
23731;DHT22;12046;44.702;10.622;2023-11-19T05:47:57;7.40;79.70
23731;DHT22;12046;44.702;10.622;2023-11-19T05:50:23;7.40;79.60
23731;DHT22;12046;44.702;10.622;2023-11-19T05:52:50;7.40;79.80
23731;DHT22;12046;44.702;10.622;2023-11-19T05:55:16;7.50;80.10
23731;DHT22;12046;44.702;10.622;2023-11-19T05:57:43;7.40;80.10
23731;DHT22;12046;44.702;10.622;2023-11-19T06:00:09;7.40;80.10
23731;DHT22;12046;44.702;10.622;2023-11-19T06:02:36;7.40;80.40
23731;DHT22;12046;44.702;10.622;2023-11-19T06:05:04;7.40;81.30
23731;DHT22;12046;44.702;10.622;2023-11-19T06:07:33;7.40;80.70
23731;DHT22;12046;44.702;10.622;2023-11-19T06:09:59;7.40;80.90
23731;DHT22;12046;44.702;10.622;2023-11-19T06:12:25;7.30;81.00
23731;DHT22;12046;44.702;10.622;2023-11-19T06:14:53;7.30;81.30
23731;DHT22;12046;44.702;10.622;2023-11-19T06:17:18;7.30;82.00
23731;DHT22;12046;44.702;10.622;2023-11-19T06:19:44;7.30;82.30
23731;DHT22;12046;44.702;10.622;2023-11-19T06:22:10;7.30;82.40
23731;DHT22;12046;44.702;10.622;2023-11-19T06:24:36;7.30;82.80
23731;DHT22;12046;44.702;10.622;2023-11-19T06:27:03;7.30;82.80
23731;DHT22;12046;44.702;10.622;2023-11-19T06:29:30;7.30;83.00
23731;DHT22;12046;44.702;10.622;2023-11-19T06:31:55;7.30;83.40
23731;DHT22;12046;44.702;10.622;2023-11-19T06:34:21;7.30;83.60
23731;DHT22;12046;44.702;10.622;2023-11-19T06:36:47;7.30;83.60
23731;DHT22;12046;44.702;10.622;2023-11-19T06:39:14;7.40;84.00
23731;DHT22;12046;44.702;10.622;2023-11-19T06:41:45;7.40;84.20
23731;DHT22;12046;44.702;10.622;2023-11-19T06:44:10;7.50;84.40
23731;DHT22;12046;44.702;10.622;2023-11-19T06:46:36;7.50;84.60
23731;DHT22;12046;44.702;10.622;2023-11-19T06:49:02;7.60;84.50
23731;DHT22;12046;44.702;10.622;2023-11-19T06:51:28;7.60;84.50
23731;DHT22;12046;44.702;10.622;2023-11-19T06:53:55;7.60;84.70
23731;DHT22;12046;44.702;10.622;2023-11-19T06:56:22;7.70;84.70
23731;DHT22;12046;44.702;10.622;2023-11-19T06:58:51;7.70;84.50
23731;DHT22;12046;44.702;10.622;2023-11-19T07:01:18;7.80;84.50
23731;DHT22;12046;44.702;10.622;2023-11-19T07:03:45;7.90;84.50
23731;DHT22;12046;44.702;10.622;2023-11-19T07:06:12;8.00;84.40
23731;DHT22;12046;44.702;10.622;2023-11-19T07:08:43;8.10;84.30
23731;DHT22;12046;44.702;10.622;2023-11-19T07:11:13;8.30;84.10
23731;DHT22;12046;44.702;10.622;2023-11-19T07:13:40;8.30;83.80
23731;DHT22;12046;44.702;10.622;2023-11-19T07:16:07;8.40;83.60
23731;DHT22;12046;44.702;10.622;2023-11-19T07:18:35;8.50;83.30
23731;DHT22;12046;44.702;10.622;2023-11-19T07:21:04;8.60;83.20
23731;DHT22;12046;44.702;10.622;2023-11-19T07:23:30;8.70;83.10
23731;DHT22;12046;44.702;10.622;2023-11-19T07:25:56;8.80;82.60
23731;DHT22;12046;44.702;10.622;2023-11-19T07:28:22;8.90;82.20
23731;DHT22;12046;44.702;10.622;2023-11-19T07:30:48;9.00;81.70
23731;DHT22;12046;44.702;10.622;2023-11-19T07:33:15;9.20;81.20
23731;DHT22;12046;44.702;10.622;2023-11-19T07:35:42;9.40;81.00
23731;DHT22;12046;44.702;10.622;2023-11-19T07:38:09;9.40;80.40
23731;DHT22;12046;44.702;10.622;2023-11-19T07:40:35;9.70;80.20
23731;DHT22;12046;44.702;10.622;2023-11-19T07:43:01;9.90;79.50
23731;DHT22;12046;44.702;10.622;2023-11-19T07:45:27;10.00;79.20
23731;DHT22;12046;44.702;10.622;2023-11-19T07:47:53;10.30;78.60
23731;DHT22;12046;44.702;10.622;2023-11-19T07:50:20;10.60;78.10
23731;DHT22;12046;44.702;10.622;2023-11-19T07:52:46;10.90;77.80
23731;DHT22;12046;44.702;10.622;2023-11-19T07:55:12;11.20;76.90
23731;DHT22;12046;44.702;10.622;2023-11-19T07:57:37;11.60;76.20
23731;DHT22;12046;44.702;10.622;2023-11-19T08:00:04;11.90;75.20
23731;DHT22;12046;44.702;10.622;2023-11-19T08:02:30;12.20;74.10
23731;DHT22;12046;44.702;10.622;2023-11-19T08:04:56;12.50;73.30
23731;DHT22;12046;44.702;10.622;2023-11-19T08:07:21;12.80;72.20
23731;DHT22;12046;44.702;10.622;2023-11-19T08:09:48;13.10;71.20
23731;DHT22;12046;44.702;10.622;2023-11-19T08:12:14;13.30;70.10
23731;DHT22;12046;44.702;10.622;2023-11-19T08:14:42;13.60;69.40
23731;DHT22;12046;44.702;10.622;2023-11-19T08:17:09;13.80;68.70
23731;DHT22;12046;44.702;10.622;2023-11-19T08:19:35;14.10;68.70
23731;DHT22;12046;44.702;10.622;2023-11-19T08:22:01;14.40;67.70
23731;DHT22;12046;44.702;10.622;2023-11-19T08:24:27;14.70;66.90
23731;DHT22;12046;44.702;10.622;2023-11-19T08:26:53;15.10;65.90
23731;DHT22;12046;44.702;10.622;2023-11-19T08:29:19;15.50;65.20
23731;DHT22;12046;44.702;10.622;2023-11-19T08:31:45;16.00;64.00
23731;DHT22;12046;44.702;10.622;2023-11-19T08:34:11;16.70;62.60
23731;DHT22;12046;44.702;10.622;2023-11-19T08:36:37;17.40;61.20
23731;DHT22;12046;44.702;10.622;2023-11-19T08:39:03;18.30;59.20
23731;DHT22;12046;44.702;10.622;2023-11-19T08:41:29;19.60;57.00
23731;DHT22;12046;44.702;10.622;2023-11-19T08:43:55;21.40;54.10
23731;DHT22;12046;44.702;10.622;2023-11-19T08:46:21;23.60;50.40
23731;DHT22;12046;44.702;10.622;2023-11-19T08:48:47;25.80;47.40
23731;DHT22;12046;44.702;10.622;2023-11-19T08:51:12;27.70;44.80
23731;DHT22;12046;44.702;10.622;2023-11-19T08:53:38;29.60;42.80
23731;DHT22;12046;44.702;10.622;2023-11-19T08:56:04;31.30;41.30
23731;DHT22;12046;44.702;10.622;2023-11-19T08:58:30;33.00;40.00
23731;DHT22;12046;44.702;10.622;2023-11-19T09:00:57;34.60;38.50
23731;DHT22;12046;44.702;10.622;2023-11-19T09:03:23;36.10;37.20
23731;DHT22;12046;44.702;10.622;2023-11-19T09:05:51;37.50;35.90
23731;DHT22;12046;44.702;10.622;2023-11-19T09:08:17;39.00;35.00
23731;DHT22;12046;44.702;10.622;2023-11-19T09:10:43;40.30;34.20
23731;DHT22;12046;44.702;10.622;2023-11-19T09:13:09;41.50;33.60
23731;DHT22;12046;44.702;10.622;2023-11-19T09:15:35;42.70;32.70
23731;DHT22;12046;44.702;10.622;2023-11-19T09:18:00;43.60;31.90
23731;DHT22;12046;44.702;10.622;2023-11-19T09:20:26;44.10;31.30
23731;DHT22;12046;44.702;10.622;2023-11-19T09:22:52;44.50;30.90
23731;DHT22;12046;44.702;10.622;2023-11-19T09:25:24;44.50;30.60
23731;DHT22;12046;44.702;10.622;2023-11-19T09:27:50;44.40;30.20
23731;DHT22;12046;44.702;10.622;2023-11-19T09:30:15;44.10;30.00
23731;DHT22;12046;44.702;10.622;2023-11-19T09:32:41;43.70;30.00
23731;DHT22;12046;44.702;10.622;2023-11-19T09:35:08;43.30;30.00
23731;DHT22;12046;44.702;10.622;2023-11-19T09:37:33;43.30;30.00
23731;DHT22;12046;44.702;10.622;2023-11-19T09:39:59;43.40;30.00
23731;DHT22;12046;44.702;10.622;2023-11-19T09:42:25;43.80;29.90
23731;DHT22;12046;44.702;10.622;2023-11-19T09:44:53;44.40;29.80
23731;DHT22;12046;44.702;10.622;2023-11-19T09:47:21;45.10;29.60
23731;DHT22;12046;44.702;10.622;2023-11-19T09:49:48;45.80;29.50
23731;DHT22;12046;44.702;10.622;2023-11-19T09:52:14;46.50;29.30
23731;DHT22;12046;44.702;10.622;2023-11-19T09:54:40;47.10;28.90
23731;DHT22;12046;44.702;10.622;2023-11-19T09:57:07;47.50;28.80
23731;DHT22;12046;44.702;10.622;2023-11-19T09:59:35;47.60;28.80
23731;DHT22;12046;44.702;10.622;2023-11-19T10:02:02;47.70;28.80
23731;DHT22;12046;44.702;10.622;2023-11-19T10:04:30;47.90;28.70
23731;DHT22;12046;44.702;10.622;2023-11-19T10:06:56;48.30;28.60
23731;DHT22;12046;44.702;10.622;2023-11-19T10:09:22;48.60;28.50
23731;DHT22;12046;44.702;10.622;2023-11-19T10:11:49;48.90;28.40
23731;DHT22;12046;44.702;10.622;2023-11-19T10:14:15;49.10;28.30
23731;DHT22;12046;44.702;10.622;2023-11-19T10:16:44;49.30;28.20
23731;DHT22;12046;44.702;10.622;2023-11-19T10:19:19;49.60;28.20
23731;DHT22;12046;44.702;10.622;2023-11-19T10:21:46;49.60;27.90
23731;DHT22;12046;44.702;10.622;2023-11-19T10:24:12;49.40;27.90
23731;DHT22;12046;44.702;10.622;2023-11-19T10:26:38;49.10;27.90
23731;DHT22;12046;44.702;10.622;2023-11-19T10:29:04;48.80;27.70
23731;DHT22;12046;44.702;10.622;2023-11-19T10:31:30;48.60;27.90
23731;DHT22;12046;44.702;10.622;2023-11-19T10:33:56;48.60;28.00
23731;DHT22;12046;44.702;10.622;2023-11-19T10:36:22;48.70;28.10
23731;DHT22;12046;44.702;10.622;2023-11-19T10:38:53;48.80;28.00
23731;DHT22;12046;44.702;10.622;2023-11-19T10:41:32;48.90;28.00
23731;DHT22;12046;44.702;10.622;2023-11-19T10:43:59;49.00;28.00
23731;DHT22;12046;44.702;10.622;2023-11-19T10:46:39;49.20;27.90
23731;DHT22;12046;44.702;10.622;2023-11-19T10:49:06;49.40;27.80
23731;DHT22;12046;44.702;10.622;2023-11-19T10:51:32;49.40;26.10
23731;DHT22;12046;44.702;10.622;2023-11-19T10:54:05;49.30;25.90
23731;DHT22;12046;44.702;10.622;2023-11-19T10:56:33;49.20;25.90
23731;DHT22;12046;44.702;10.622;2023-11-19T10:59:00;49.10;26.10
23731;DHT22;12046;44.702;10.622;2023-11-19T11:01:44;48.80;26.00
23731;DHT22;12046;44.702;10.622;2023-11-19T11:04:14;48.20;25.70
23731;DHT22;12046;44.702;10.622;2023-11-19T11:06:43;47.30;25.70
23731;DHT22;12046;44.702;10.622;2023-11-19T11:09:10;46.70;25.90
23731;DHT22;12046;44.702;10.622;2023-11-19T11:11:40;46.20;26.10
23731;DHT22;12046;44.702;10.622;2023-11-19T11:14:12;45.90;26.20
23731;DHT22;12046;44.702;10.622;2023-11-19T11:16:46;45.90;26.40
23731;DHT22;12046;44.702;10.622;2023-11-19T11:19:12;46.10;26.50
23731;DHT22;12046;44.702;10.622;2023-11-19T11:21:41;46.70;26.50
23731;DHT22;12046;44.702;10.622;2023-11-19T11:27:25;47.80;26.00
23731;DHT22;12046;44.702;10.622;2023-11-19T11:30:26;48.00;25.90
23731;DHT22;12046;44.702;10.622;2023-11-19T11:36:13;48.30;25.90
23731;DHT22;12046;44.702;10.622;2023-11-19T11:38:44;48.70;26.00
23731;DHT22;12046;44.702;10.622;2023-11-19T11:41:23;49.10;26.00
23731;DHT22;12046;44.702;10.622;2023-11-19T11:43:50;49.80;26.00
23731;DHT22;12046;44.702;10.622;2023-11-19T11:57:10;50.70;25.70
23731;DHT22;12046;44.702;10.622;2023-11-19T11:59:49;50.40;25.80
23731;DHT22;12046;44.702;10.622;2023-11-19T12:02:19;50.30;25.80
23731;DHT22;12046;44.702;10.622;2023-11-19T12:04:49;50.30;25.80
23731;DHT22;12046;44.702;10.622;2023-11-19T12:07:20;50.40;25.80
23731;DHT22;12046;44.702;10.622;2023-11-19T12:09:51;50.70;25.80
23731;DHT22;12046;44.702;10.622;2023-11-19T12:15:06;51.10;25.60
23731;DHT22;12046;44.702;10.622;2023-11-19T12:17:41;51.00;25.50
23731;DHT22;12046;44.702;10.622;2023-11-19T12:20:08;50.90;25.50
23731;DHT22;12046;44.702;10.622;2023-11-19T12:22:38;50.90;25.50
23731;DHT22;12046;44.702;10.622;2023-11-19T12:25:08;50.90;25.60
23731;DHT22;12046;44.702;10.622;2023-11-19T12:27:41;50.90;25.60
23731;DHT22;12046;44.702;10.622;2023-11-19T12:30:08;50.80;25.60
23731;DHT22;12046;44.702;10.622;2023-11-19T12:32:40;50.50;25.60
23731;DHT22;12046;44.702;10.622;2023-11-19T12:35:07;49.90;25.60
23731;DHT22;12046;44.702;10.622;2023-11-19T12:37:46;49.50;25.70
23731;DHT22;12046;44.702;10.622;2023-11-19T12:40:24;49.30;25.70
23731;DHT22;12046;44.702;10.622;2023-11-19T12:42:52;49.40;25.80
23731;DHT22;12046;44.702;10.622;2023-11-19T12:45:22;49.50;25.80
23731;DHT22;12046;44.702;10.622;2023-11-19T12:47:49;49.60;25.80
23731;DHT22;12046;44.702;10.622;2023-11-19T12:50:23;49.70;25.80
23731;DHT22;12046;44.702;10.622;2023-11-19T12:52:57;49.60;25.70
23731;DHT22;12046;44.702;10.622;2023-11-19T12:55:29;49.50;25.90
23731;DHT22;12046;44.702;10.622;2023-11-19T12:57:56;49.40;25.80
23731;DHT22;12046;44.702;10.622;2023-11-19T13:00:23;49.20;26.00
23731;DHT22;12046;44.702;10.622;2023-11-19T13:05:30;49.00;26.20
23731;DHT22;12046;44.702;10.622;2023-11-19T13:08:04;48.70;26.30
23731;DHT22;12046;44.702;10.622;2023-11-19T13:10:32;48.60;26.50
23731;DHT22;12046;44.702;10.622;2023-11-19T13:13:06;48.50;26.50
23731;DHT22;12046;44.702;10.622;2023-11-19T13:15:34;48.30;26.40
23731;DHT22;12046;44.702;10.622;2023-11-19T13:18:00;48.10;26.50
23731;DHT22;12046;44.702;10.622;2023-11-19T13:20:26;47.80;26.50
23731;DHT22;12046;44.702;10.622;2023-11-19T13:23:02;47.50;26.80
23731;DHT22;12046;44.702;10.622;2023-11-19T13:25:31;47.10;26.90
23731;DHT22;12046;44.702;10.622;2023-11-19T13:27:58;46.80;27.00
23731;DHT22;12046;44.702;10.622;2023-11-19T13:30:24;46.50;27.10
23731;DHT22;12046;44.702;10.622;2023-11-19T13:32:51;46.10;27.20
23731;DHT22;12046;44.702;10.622;2023-11-19T13:35:18;45.50;27.40
23731;DHT22;12046;44.702;10.622;2023-11-19T13:37:44;44.80;27.50
23731;DHT22;12046;44.702;10.622;2023-11-19T13:40:11;44.20;27.60
23731;DHT22;12046;44.702;10.622;2023-11-19T13:42:42;43.50;27.80
23731;DHT22;12046;44.702;10.622;2023-11-19T13:45:12;42.20;30.00
23731;DHT22;12046;44.702;10.622;2023-11-19T13:47:42;40.50;30.40
23731;DHT22;12046;44.702;10.622;2023-11-19T13:50:10;38.80;30.90
23731;DHT22;12046;44.702;10.622;2023-11-19T13:52:37;37.10;31.50
23731;DHT22;12046;44.702;10.622;2023-11-19T13:55:07;35.60;32.40
23731;DHT22;12046;44.702;10.622;2023-11-19T13:57:35;34.20;33.20
23731;DHT22;12046;44.702;10.622;2023-11-19T14:00:04;33.10;34.10
23731;DHT22;12046;44.702;10.622;2023-11-19T14:02:47;32.00;34.80
23731;DHT22;12046;44.702;10.622;2023-11-19T14:05:14;31.10;36.00
23731;DHT22;12046;44.702;10.622;2023-11-19T14:07:40;30.20;36.80
23731;DHT22;12046;44.702;10.622;2023-11-19T14:10:07;29.50;37.40
23731;DHT22;12046;44.702;10.622;2023-11-19T14:12:35;28.80;37.80
23731;DHT22;12046;44.702;10.622;2023-11-19T14:15:08;28.40;38.50
23731;DHT22;12046;44.702;10.622;2023-11-19T14:17:40;28.20;38.90
23731;DHT22;12046;44.702;10.622;2023-11-19T14:20:06;28.40;39.10
23731;DHT22;12046;44.702;10.622;2023-11-19T14:22:45;29.00;39.00
23731;DHT22;12046;44.702;10.622;2023-11-19T14:25:14;29.90;38.50
23731;DHT22;12046;44.702;10.622;2023-11-19T14:27:41;30.80;37.80
23731;DHT22;12046;44.702;10.622;2023-11-19T14:30:08;31.60;37.20
23731;DHT22;12046;44.702;10.622;2023-11-19T14:32:37;32.30;36.70
23731;DHT22;12046;44.702;10.622;2023-11-19T14:35:06;32.70;36.30
23731;DHT22;12046;44.702;10.622;2023-11-19T14:37:33;33.10;36.10
23731;DHT22;12046;44.702;10.622;2023-11-19T14:39:59;33.30;36.00
23731;DHT22;12046;44.702;10.622;2023-11-19T14:42:26;33.40;35.90
23731;DHT22;12046;44.702;10.622;2023-11-19T14:44:52;33.40;35.80
23731;DHT22;12046;44.702;10.622;2023-11-19T14:47:19;33.40;35.80
23731;DHT22;12046;44.702;10.622;2023-11-19T14:49:45;33.20;35.80
23731;DHT22;12046;44.702;10.622;2023-11-19T14:52:11;33.10;36.00
23731;DHT22;12046;44.702;10.622;2023-11-19T14:54:40;32.90;36.10
23731;DHT22;12046;44.702;10.622;2023-11-19T14:57:06;32.60;36.20
23731;DHT22;12046;44.702;10.622;2023-11-19T14:59:36;32.40;36.30
23731;DHT22;12046;44.702;10.622;2023-11-19T15:02:03;32.10;36.60
23731;DHT22;12046;44.702;10.622;2023-11-19T15:04:30;31.80;36.90
23731;DHT22;12046;44.702;10.622;2023-11-19T15:06:59;31.30;37.10
23731;DHT22;12046;44.702;10.622;2023-11-19T15:09:26;31.00;37.50
23731;DHT22;12046;44.702;10.622;2023-11-19T15:11:55;30.50;37.70
23731;DHT22;12046;44.702;10.622;2023-11-19T15:14:21;30.10;38.00
23731;DHT22;12046;44.702;10.622;2023-11-19T15:16:47;29.80;38.40
23731;DHT22;12046;44.702;10.622;2023-11-19T15:19:13;29.40;38.70
23731;DHT22;12046;44.702;10.622;2023-11-19T15:21:40;28.90;39.10
23731;DHT22;12046;44.702;10.622;2023-11-19T15:24:08;28.40;39.60
23731;DHT22;12046;44.702;10.622;2023-11-19T15:26:35;27.80;40.10
23731;DHT22;12046;44.702;10.622;2023-11-19T15:29:04;27.00;40.60
23731;DHT22;12046;44.702;10.622;2023-11-19T15:31:30;26.10;41.50
23731;DHT22;12046;44.702;10.622;2023-11-19T15:33:56;25.20;42.40
23731;DHT22;12046;44.702;10.622;2023-11-19T15:36:23;24.30;43.40
23731;DHT22;12046;44.702;10.622;2023-11-19T15:38:49;23.50;44.50
23731;DHT22;12046;44.702;10.622;2023-11-19T15:41:15;22.70;45.40
23731;DHT22;12046;44.702;10.622;2023-11-19T15:43:42;22.10;46.30
23731;DHT22;12046;44.702;10.622;2023-11-19T15:46:08;21.50;47.10
23731;DHT22;12046;44.702;10.622;2023-11-19T15:48:34;21.00;48.00
23731;DHT22;12046;44.702;10.622;2023-11-19T15:51:01;20.50;48.80